Time;durP1;ratioP1;P1;durP2;ratioP2;P2;SDS_P1;SDS_P2;PMS_P1;PMS_P2;Temp;Humidity;BMP_temperature;BMP_pressure;BME280_temperature;BME280_humidity;BME280_pressure;Samples;Min_cycle;Max_cycle;Signal;HPM_P1;HPM_P2
2023/09/22 00:01:17;;;;;;;1.45;1.33;;;16.00;99.90;;;16.61;100.00;96686.53;10428133;28;20264;-79
2023/09/22 00:06:22;;;;;;;1.52;1.25;;;16.00;99.90;;;16.43;100.00;96689.69;10426360;28;20686;-79
2023/09/22 00:11:25;;;;;;;1.20;1.10;;;15.80;99.90;;;16.46;100.00;96706.94;10434913;28;20279;-79
2023/09/22 00:16:28;;;;;;;1.42;1.33;;;15.80;99.90;;;16.46;100.00;96717.25;10439524;28;20222;-80
2023/09/22 00:21:33;;;;;;;1.90;1.35;;;15.80;99.90;;;16.40;100.00;96717.16;10438314;28;20230;-79
2023/09/22 00:26:36;;;;;;;1.40;1.30;;;15.80;99.90;;;16.42;100.00;96742.16;10445518;28;20225;-82
2023/09/22 00:31:40;;;;;;;1.40;1.30;;;15.80;99.90;;;16.28;100.00;96714.38;10440738;28;20237;-80
2023/09/22 00:36:45;;;;;;;2.08;1.52;;;15.70;99.90;;;16.20;100.00;96691.94;10447814;28;20213;-79
2023/09/22 00:41:48;;;;;;;3.55;1.10;;;15.60;99.90;;;16.19;100.00;96686.72;10436881;28;20253;-79
2023/09/22 00:46:51;;;;;;;1.35;1.25;;;15.60;99.90;;;16.14;100.00;96702.13;10441799;28;20225;-79
2023/09/22 00:51:58;;;;;;;2.17;1.40;;;15.40;99.90;;;16.06;100.00;96689.97;10442781;28;20233;-78
2023/09/22 00:57:04;;;;;;;1.30;1.20;;;15.40;99.90;;;15.87;100.00;96678.47;10438612;28;20267;-78
2023/09/22 01:02:07;;;;;;;1.80;1.38;;;15.30;99.90;;;15.80;100.00;96650.88;10444201;28;20229;-80
2023/09/22 01:07:12;;;;;;;1.33;1.23;;;15.30;99.90;;;15.90;100.00;96684.53;10445380;28;20225;-79
2023/09/22 01:12:15;;;;;;;1.60;1.50;;;15.30;99.90;;;15.77;100.00;96693.78;10442915;28;20232;-80
2023/09/22 01:17:18;;;;;;;1.73;1.63;;;15.30;99.90;;;15.69;100.00;96687.63;10438127;28;20221;-78
2023/09/22 01:22:23;;;;;;;1.80;1.70;;;15.20;99.90;;;15.68;100.00;96701.34;10438411;28;20229;-79
2023/09/22 01:27:26;;;;;;;2.28;1.70;;;15.10;99.90;;;15.55;100.00;96695.06;10437703;28;20714;-79
2023/09/22 01:32:29;;;;;;;1.80;1.30;;;15.10;99.90;;;15.48;100.00;96695.78;10431764;28;20222;-79
2023/09/22 01:37:38;;;;;;;1.70;1.60;;;14.90;99.90;;;15.38;100.00;96680.13;10430842;28;20228;-80
2023/09/22 01:42:41;;;;;;;1.50;1.40;;;14.90;99.90;;;15.38;100.00;96675.84;10428057;28;20224;-78
2023/09/22 01:47:45;;;;;;;1.60;1.50;;;14.80;99.90;;;15.33;100.00;96683.47;10439973;28;20229;-79
2023/09/22 01:52:49;;;;;;;2.08;1.42;;;14.70;99.90;;;15.37;100.00;96687.00;10428964;28;20221;-80
2023/09/22 01:57:53;;;;;;;1.80;1.70;;;14.70;99.90;;;15.18;100.00;96701.19;10431750;28;20221;-78
2023/09/22 02:02:57;;;;;;;1.95;1.60;;;14.60;99.90;;;15.28;100.00;96687.69;10427364;28;20946;-79
2023/09/22 02:08:02;;;;;;;1.85;1.58;;;14.70;99.90;;;15.30;100.00;96722.03;10429161;28;20284;-78
2023/09/22 02:13:07;;;;;;;2.55;1.67;;;14.60;99.90;;;15.12;100.00;96706.22;10427469;28;20226;-80
2023/09/22 02:18:11;;;;;;;1.58;1.48;;;14.70;99.90;;;15.18;100.00;96685.75;10427205;28;20655;-78
2023/09/22 02:23:16;;;;;;;2.03;1.83;;;14.60;99.90;;;15.24;100.00;96683.28;10433763;28;20237;-78
2023/09/22 02:28:19;;;;;;;1.50;1.38;;;14.60;99.90;;;15.27;100.00;96696.22;10428354;28;20229;-78
2023/09/22 02:33:23;;;;;;;1.70;1.60;;;14.60;99.90;;;15.15;100.00;96695.13;10429476;28;20248;-78
2023/09/22 02:38:28;;;;;;;1.70;1.55;;;14.60;99.90;;;15.11;100.00;96694.19;10433653;28;20230;-80
2023/09/22 02:43:31;;;;;;;2.30;1.55;;;14.60;99.90;;;15.07;100.00;96725.84;10428931;28;20230;-78
2023/09/22 02:48:34;;;;;;;2.53;1.55;;;14.50;99.90;;;15.11;100.00;96725.09;10428938;28;20226;-80
2023/09/22 02:53:39;;;;;;;1.65;1.55;;;14.50;99.90;;;14.88;100.00;96711.72;10428792;28;20248;-79
2023/09/22 02:58:44;;;;;;;1.70;1.60;;;14.40;99.90;;;14.92;100.00;96704.94;10428339;28;20229;-79
2023/09/22 03:03:47;;;;;;;1.70;1.30;;;14.40;99.90;;;15.12;100.00;96659.88;10431902;28;20217;-79
2023/09/22 03:08:52;;;;;;;1.60;1.50;;;14.40;99.90;;;14.87;100.00;96684.25;10423931;28;20217;-78
2023/09/22 03:13:55;;;;;;;2.08;1.20;;;14.30;99.90;;;14.70;100.00;96726.75;10428012;28;20251;-79
2023/09/22 03:18:59;;;;;;;1.70;1.58;;;14.20;99.90;;;14.78;100.00;96702.94;10430298;28;20212;-79
2023/09/22 03:24:04;;;;;;;1.70;1.55;;;14.20;99.90;;;14.74;100.00;96692.56;10429003;28;21053;-79
2023/09/22 03:29:08;;;;;;;2.15;1.75;;;14.10;99.90;;;14.74;100.00;96710.56;10428950;28;20216;-79
2023/09/22 03:34:12;;;;;;;1.35;1.25;;;14.20;99.90;;;14.76;100.00;96716.59;10431754;28;20229;-78
2023/09/22 03:39:18;;;;;;;2.17;1.58;;;14.10;99.90;;;14.76;100.00;96744.88;10423698;28;20719;-80
2023/09/22 03:44:22;;;;;;;2.30;1.80;;;14.20;99.90;;;14.95;100.00;96753.88;10424910;28;20288;-79
2023/09/22 03:49:25;;;;;;;3.95;2.20;;;14.20;99.90;;;14.84;100.00;96772.53;10428353;28;20661;-79
2023/09/22 03:54:29;;;;;;;2.03;1.92;;;14.30;99.90;;;14.85;100.00;96778.53;10428158;28;20253;-80
2023/09/22 03:59:33;;;;;;;2.25;2.13;;;14.30;99.90;;;14.96;100.00;96813.09;10428965;28;20260;-79
2023/09/22 04:04:36;;;;;;;1.75;1.63;;;14.40;99.90;;;14.95;100.00;96805.34;10433829;28;20246;-79
2023/09/22 04:09:42;;;;;;;2.25;2.05;;;14.30;99.90;;;14.99;100.00;96796.84;10440876;28;20240;-79
2023/09/22 04:14:45;;;;;;;1.92;1.73;;;14.40;99.90;;;15.10;100.00;96809.13;10433588;28;20232;-78
2023/09/22 04:19:49;;;;;;;1.80;1.70;;;14.40;99.90;;;15.22;100.00;96785.38;10428963;28;20270;-79
2023/09/22 04:25:00;;;;;;;2.17;1.80;;;14.40;99.90;;;15.02;100.00;96745.44;10426471;28;20228;-79
2023/09/22 04:30:07;;;;;;;1.52;1.42;;;14.30;99.90;;;14.59;100.00;96723.91;10428392;28;20291;-80
2023/09/22 04:35:10;;;;;;;1.90;1.67;;;14.00;99.90;;;14.60;100.00;96728.25;10429236;28;20222;-78
2023/09/22 04:40:24;;;;;;;2.38;1.90;;;14.00;99.90;;;14.63;100.00;96710.31;10427330;28;20226;-78
2023/09/22 04:45:28;;;;;;;2.67;2.00;;;14.10;99.90;;;14.66;100.00;96700.09;10424863;28;20236;-79
2023/09/22 04:50:31;;;;;;;2.22;2.08;;;14.10;99.90;;;14.76;100.00;96737.16;10430832;28;20290;-79
2023/09/22 04:55:36;;;;;;;2.38;1.90;;;14.20;99.90;;;14.64;100.00;96756.63;10427646;28;20225;-79
2023/09/22 05:00:39;;;;;;;4.25;2.13;;;14.00;99.90;;;14.66;100.00;96772.09;10435631;28;20238;-79
2023/09/22 05:05:43;;;;;;;1.85;1.75;;;14.10;99.90;;;14.73;100.00;96758.53;10446222;28;20221;-79
2023/09/22 05:10:49;;;;;;;2.05;1.80;;;14.10;99.90;;;14.69;100.00;96764.47;10446963;28;21019;-79
2023/09/22 05:15:52;;;;;;;1.58;1.48;;;14.00;99.90;;;14.75;100.00;96771.44;10459987;28;20256;-80
2023/09/22 05:20:55;;;;;;;1.58;1.48;;;14.10;99.90;;;14.61;100.00;96786.56;10465070;28;20225;-81
2023/09/22 05:26:01;;;;;;;2.05;1.75;;;13.90;99.90;;;14.55;100.00;96770.97;10455049;28;20272;-80
2023/09/22 05:31:07;;;;;;;1.83;1.73;;;13.90;99.90;;;14.47;100.00;96775.03;10466894;28;20225;-81
2023/09/22 05:36:16;;;;;;;1.83;1.63;;;13.80;99.90;;;14.48;100.00;96781.91;10436127;28;20287;-79
2023/09/22 05:41:21;;;;;;;1.80;1.70;;;13.90;99.90;;;14.52;100.00;96773.47;10446352;28;20283;-80
2023/09/22 05:46:24;;;;;;;2.15;1.83;;;13.90;99.90;;;14.54;100.00;96788.13;10444561;28;20267;-79
2023/09/22 05:51:28;;;;;;;2.30;2.00;;;13.90;99.90;;;14.64;100.00;96795.19;10428745;28;20225;-79
2023/09/22 05:56:33;;;;;;;2.35;2.10;;;14.00;99.90;;;14.73;100.00;96802.28;10429836;28;20221;-77
2023/09/22 06:01:37;;;;;;;3.10;1.90;;;14.10;99.90;;;14.80;100.00;96801.59;10427118;28;20279;-78
2023/09/22 06:06:42;;;;;;;2.88;2.03;;;14.20;99.90;;;14.90;100.00;96822.38;10443855;28;20229;-78
2023/09/22 06:11:47;;;;;;;2.03;1.92;;;14.20;99.90;;;14.92;100.00;96839.59;10444833;28;20244;-80
2023/09/22 06:16:51;;;;;;;3.00;2.30;;;14.30;99.90;;;14.99;100.00;96843.19;10441688;28;20599;-79
2023/09/22 06:21:55;;;;;;;4.45;2.67;;;14.30;99.90;;;14.89;100.00;96847.25;10425135;28;20226;-78
2023/09/22 06:26:59;;;;;;;2.28;1.70;;;14.20;99.90;;;14.80;100.00;96857.31;10423908;28;20233;-78
2023/09/22 06:32:04;;;;;;;2.50;1.88;;;14.20;99.90;;;14.85;100.00;96876.28;10424193;28;20245;-80
2023/09/22 06:37:07;;;;;;;1.95;1.85;;;14.20;99.90;;;14.94;100.00;96871.41;10419864;28;20264;-78
2023/09/22 06:42:12;;;;;;;2.08;1.95;;;14.30;99.90;;;15.00;100.00;96878.38;10431005;28;20325;-78
2023/09/22 06:47:16;;;;;;;2.22;1.95;;;14.40;99.90;;;15.00;100.00;96880.97;10430047;28;20345;-78
2023/09/22 06:52:19;;;;;;;1.90;1.73;;;14.40;99.90;;;15.02;100.00;96871.56;10429975;28;20229;-78
2023/09/22 06:57:24;;;;;;;2.10;1.80;;;14.30;99.90;;;15.05;100.00;96894.78;10428132;28;20324;-79
2023/09/22 07:02:28;;;;;;;2.60;1.70;;;14.40;99.90;;;14.89;100.00;96877.25;10424576;28;20236;-79
2023/09/22 07:07:32;;;;;;;2.33;2.13;;;14.30;99.90;;;14.97;100.00;96886.03;10422505;28;20225;-79
2023/09/22 07:12:38;;;;;;;159.20;119.95;;;14.30;99.90;;;14.87;100.00;96870.34;10427079;28;20243;-78
2023/09/22 07:17:43;;;;;;;76.07;70.05;;;14.30;99.90;;;14.86;100.00;96878.91;10431326;28;20229;-82
2023/09/22 07:22:47;;;;;;;5.20;4.80;;;14.30;99.90;;;14.79;100.00;96877.03;10441290;28;20225;-80
2023/09/22 07:27:53;;;;;;;2.55;2.10;;;14.20;99.90;;;14.83;100.00;96878.84;10449468;28;20313;-80
2023/09/22 07:32:57;;;;;;;3.20;2.95;;;14.20;99.90;;;14.83;100.00;96889.13;10445547;28;20281;-80
2023/09/22 07:38:00;;;;;;;2.85;2.22;;;14.20;99.90;;;14.84;100.00;96874.56;10442120;28;20705;-81
2023/09/22 07:43:06;;;;;;;3.20;2.00;;;14.30;99.90;;;14.81;100.00;96880.50;10442892;28;20232;-80
2023/09/22 07:48:11;;;;;;;2.15;1.95;;;14.30;99.90;;;15.22;100.00;96888.34;10436561;28;20289;-81
2023/09/22 07:53:15;;;;;;;2.65;2.03;;;14.80;99.90;;;15.48;100.00;96885.47;10435484;28;20228;-80
2023/09/22 07:58:20;;;;;;;1.98;1.63;;;15.00;99.90;;;15.64;100.00;96882.41;10446773;28;20246;-81
2023/09/22 08:03:24;;;;;;;1.95;1.85;;;15.10;99.90;;;15.69;100.00;96874.81;10436752;28;20229;-81
2023/09/22 08:08:29;;;;;;;1.42;1.33;;;15.10;99.90;;;15.74;100.00;96868.91;10439531;28;21206;-82
2023/09/22 08:13:35;;;;;;;3.63;1.70;;;15.20;99.90;;;15.86;100.00;96867.44;10437180;28;20233;-81
2023/09/22 08:18:40;;;;;;;1.95;1.85;;;15.40;99.90;;;16.01;100.00;96862.56;10437720;28;20240;-82
2023/09/22 08:23:43;;;;;;;1.90;1.77;;;15.40;99.90;;;16.13;100.00;96888.59;10455479;28;20235;-80
2023/09/22 08:28:54;;;;;;;2.72;1.83;;;15.60;99.90;;;16.40;100.00;96908.88;10440504;28;20243;-82
2023/09/22 08:33:57;;;;;;;1.98;1.85;;;15.80;99.90;;;16.31;100.00;96908.72;10445184;28;20800;-82
2023/09/22 08:39:01;;;;;;;41.05;36.70;;;15.70;99.90;;;16.28;100.00;96893.19;10450607;28;20243;-83
2023/09/22 08:44:07;;;;;;;67.97;47.35;;;15.70;99.90;;;16.14;100.00;96892.94;10449884;28;20288;-84
2023/09/22 08:49:10;;;;;;;16.88;12.55;;;15.60;99.90;;;16.17;100.00;96923.91;10449044;28;20995;-82
2023/09/22 08:54:14;;;;;;;3.88;3.00;;;15.60;99.90;;;16.09;100.00;96902.28;10447736;28;20230;-80
2023/09/22 08:59:19;;;;;;;7.82;5.88;;;15.50;99.90;;;16.24;100.00;96906.84;10449611;28;20221;-82
2023/09/22 09:04:33;;;;;;;4.85;3.90;;;15.70;99.90;;;16.23;100.00;96910.28;10447851;28;20233;-82
2023/09/22 09:09:44;;;;;;;1.95;1.83;;;15.60;99.90;;;16.41;100.00;96914.91;10451841;28;20259;-81
2023/09/22 09:15:00;;;;;;;2.45;1.92;;;15.80;99.90;;;16.32;100.00;96915.59;10442916;28;20308;-82
2023/09/22 09:20:05;;;;;;;2.58;2.00;;;15.70;99.90;;;16.50;100.00;96909.06;10449496;28;20225;-83
2023/09/22 09:25:09;;;;;;;2.58;1.83;;;15.80;99.90;;;16.70;100.00;96915.44;10442064;28;20320;-82
2023/09/22 09:30:18;;;;;;;1.90;1.70;;;15.90;99.90;;;16.81;100.00;96926.84;10440023;28;20225;-81
2023/09/22 09:35:28;;;;;;;1.77;1.67;;;16.00;99.90;;;16.78;100.00;96919.06;10448270;28;20229;-81
2023/09/22 09:40:53;;;;;;;1.83;1.50;;;16.10;99.90;;;16.89;100.00;96924.41;10442558;28;20225;-81
2023/09/22 09:45:59;;;;;;;1.92;1.73;;;16.20;99.90;;;17.05;100.00;96921.25;10448406;28;20641;-82
2023/09/22 09:51:05;;;;;;;2.40;1.77;;;16.40;99.90;;;17.26;100.00;96931.06;10443438;28;20605;-79
2023/09/22 09:56:09;;;;;;;1.52;1.42;;;16.50;99.90;;;17.49;100.00;96943.47;10466395;28;20221;-82
2023/09/22 10:01:17;;;;;;;1.35;1.10;;;16.70;99.90;;;17.54;98.20;96927.19;10452307;28;20320;-82
2023/09/22 10:06:24;;;;;;;1.50;1.40;;;16.70;99.90;;;17.42;99.23;96923.53;10441545;28;20229;-82
2023/09/22 10:11:37;;;;;;;1.25;1.25;;;16.70;99.90;;;17.68;93.68;96923.91;10450123;28;20252;-80
2023/09/22 10:16:42;;;;;;;2.15;1.50;;;16.90;99.90;;;17.50;96.02;96938.28;10445147;28;20364;-82
2023/09/22 10:21:48;;;;;;;1.45;1.35;;;16.80;99.90;;;17.66;96.47;96941.13;10442065;28;20230;-81
2023/09/22 10:27:15;;;;;;;1.42;1.27;;;16.80;99.90;;;17.55;97.04;96933.22;10440569;28;20284;-80
2023/09/22 10:32:29;;;;;;;1.27;1.17;;;16.80;99.90;;;17.61;95.29;96924.69;10440824;28;20221;-82
2023/09/22 10:37:35;;;;;;;1.42;1.33;;;16.80;99.90;;;17.81;92.49;96918.09;10434696;28;20300;-81
2023/09/22 10:42:43;;;;;;;1.52;1.42;;;17.10;99.90;;;17.96;92.57;96915.69;10443305;28;20244;-82
2023/09/22 10:47:51;;;;;;;1.48;1.20;;;17.20;99.90;;;18.21;90.31;96916.00;10441237;28;20226;-82
2023/09/22 10:52:57;;;;;;;1.30;1.20;;;17.50;99.90;;;18.33;86.77;96926.50;10443012;28;20461;-81
2023/09/22 10:58:02;;;;;;;1.15;1.10;;;17.60;99.90;;;18.50;87.87;96939.63;10441123;28;20235;-82
2023/09/22 11:03:09;;;;;;;1.40;1.30;;;17.70;99.90;;;18.52;85.55;96932.75;10441725;28;20236;-81
2023/09/22 11:08:14;;;;;;;1.08;0.98;;;17.80;99.90;;;18.44;83.83;96932.66;10452562;28;20225;-81
2023/09/22 11:13:18;;;;;;;1.20;1.20;;;17.50;99.90;;;18.45;82.83;96931.78;10442214;28;20221;-79
2023/09/22 11:18:28;;;;;;;1.40;1.30;;;17.70;99.90;;;18.36;83.59;96920.50;10432912;28;20313;-78
2023/09/22 11:23:35;;;;;;;1.67;1.40;;;17.50;99.90;;;18.42;83.85;96921.41;10430881;28;20255;-78
2023/09/22 11:28:41;;;;;;;1.33;1.27;;;17.50;99.90;;;18.69;81.83;96917.41;10434573;28;20232;-78
2023/09/22 11:34:01;;;;;;;1.08;1.08;;;17.80;99.90;;;18.95;79.30;96911.63;10436134;28;20228;-80
2023/09/22 11:39:05;;;;;;;1.40;1.30;;;17.90;99.90;;;19.03;77.57;96903.06;10439464;28;20217;-77
2023/09/22 11:44:14;;;;;;;1.67;1.00;;;18.10;99.90;;;18.97;79.96;96907.31;10427949;28;20680;-79
2023/09/22 11:49:20;;;;;;;1.25;1.15;;;18.10;99.90;;;19.21;76.47;96932.56;10420715;28;20324;-78
2023/09/22 11:54:24;;;;;;;1.40;1.30;;;18.40;99.90;;;18.97;78.08;96940.97;10433569;28;20237;-77
2023/09/22 11:59:31;;;;;;;1.08;1.08;;;18.30;99.90;;;19.01;76.90;96929.81;10428204;28;20260;-78
2023/09/22 12:04:37;;;;;;;1.90;1.20;;;18.10;99.90;;;19.01;75.03;96927.22;10431259;28;20228;-79
2023/09/22 12:09:42;;;;;;;1.10;1.10;;;18.20;99.90;;;18.91;76.97;96915.91;10427765;28;20232;-78
2023/09/22 12:14:45;;;;;;;1.10;1.10;;;18.10;99.90;;;19.09;75.49;96912.63;10415596;28;20222;-77
2023/09/22 12:19:50;;;;;;;1.30;1.20;;;18.30;99.90;;;19.27;74.82;96920.53;10417022;28;20236;-79
2023/09/22 12:24:53;;;;;;;1.52;1.05;;;18.40;99.90;;;19.32;74.12;96921.44;10419579;28;20221;-78
2023/09/22 12:29:56;;;;;;;1.20;1.10;;;18.40;99.90;;;19.17;71.37;96926.47;10427725;28;20319;-77
2023/09/22 12:35:01;;;;;;;0.98;0.98;;;18.40;99.90;;;18.93;72.82;96934.91;10417871;28;20281;-78
2023/09/22 12:40:06;;;;;;;1.20;1.10;;;18.30;99.90;;;18.83;73.71;96928.78;10448163;28;20261;-78
2023/09/22 12:45:10;;;;;;;1.90;1.15;;;18.30;99.90;;;19.07;73.24;96922.09;10421867;28;20239;-79
2023/09/22 12:50:14;;;;;;;1.08;1.00;;;18.40;99.90;;;18.87;71.57;96935.72;10417856;28;20221;-77
2023/09/22 12:55:18;;;;;;;0.93;0.93;;;18.30;99.90;;;18.54;72.47;96938.81;10430522;28;20672;-79
2023/09/22 13:00:21;;;;;;;0.95;0.95;;;18.10;99.90;;;18.41;70.65;96935.22;10419580;28;20681;-78
2023/09/22 13:05:25;;;;;;;1.02;1.00;;;17.90;99.90;;;18.24;73.49;96919.50;10424336;28;20238;-78
2023/09/22 13:10:29;;;;;;;1.25;1.15;;;17.60;99.90;;;18.41;71.92;96909.34;10422879;28;20233;-78
2023/09/22 13:15:33;;;;;;;1.50;1.40;;;18.00;99.90;;;18.34;73.57;96902.38;10425808;28;20260;-79
2023/09/22 13:20:37;;;;;;;1.23;1.10;;;18.00;99.90;;;18.48;73.97;96905.09;10436512;28;20241;-80
2023/09/22 13:25:43;;;;;;;1.38;1.27;;;18.10;99.90;;;18.68;73.97;96892.34;10436857;28;20232;-78
2023/09/22 13:30:53;;;;;;;2.08;1.60;;;18.10;99.90;;;18.57;73.00;96889.69;10428384;28;20229;-83
2023/09/22 13:35:59;;;;;;;1.40;1.30;;;18.20;99.90;;;18.69;72.37;96889.78;10446735;28;20267;-82
2023/09/22 13:41:11;;;;;;;1.63;1.40;;;18.20;99.90;;;18.85;70.75;96888.22;10437553;28;20260;-81
2023/09/22 13:46:16;;;;;;;1.90;1.60;;;18.40;99.90;;;18.63;70.72;96888.88;10430272;28;20222;-81
2023/09/22 13:51:21;;;;;;;1.15;1.05;;;18.30;99.90;;;18.66;70.29;96873.38;10432750;28;20230;-80
2023/09/22 13:56:24;;;;;;;2.08;1.90;;;18.10;99.90;;;18.74;69.62;96887.25;10432157;28;20292;-81
2023/09/22 14:01:29;;;;;;;2.13;2.03;;;18.30;99.90;;;18.70;68.92;96885.47;10457553;28;20232;-78
2023/09/22 14:06:34;;;;;;;2.28;2.17;;;18.30;99.90;;;18.59;69.60;96897.44;10475091;28;20320;-81
2023/09/22 14:11:38;;;;;;;2.03;1.92;;;18.30;99.90;;;18.20;71.54;96912.56;10453624;28;20232;-80
2023/09/22 14:16:41;;;;;;;1.90;1.80;;;18.00;99.90;;;18.12;71.66;96914.19;10449204;28;20279;-81
2023/09/22 14:21:46;;;;;;;1.75;1.65;;;17.90;99.90;;;18.30;72.17;96898.00;10439236;28;20237;-79
2023/09/22 14:26:50;;;;;;;2.38;1.27;;;17.90;99.90;;;18.53;71.00;96872.38;10426231;28;20229;-81
2023/09/22 14:31:53;;;;;;;1.70;1.60;;;18.10;99.90;;;18.79;70.47;96885.59;10426284;28;20222;-82
2023/09/22 14:36:58;;;;;;;1.77;1.67;;;18.40;99.90;;;18.75;69.51;96901.97;10433789;28;20290;-81
2023/09/22 14:42:01;;;;;;;1.30;1.20;;;18.40;99.90;;;18.73;71.06;96901.03;10432152;28;20238;-82
2023/09/22 14:47:05;;;;;;;1.85;1.75;;;18.10;99.90;;;18.79;71.87;96903.72;10434473;28;20267;-81
2023/09/22 14:52:09;;;;;;;2.00;1.83;;;18.20;99.90;;;18.98;70.00;96901.31;10429064;28;20336;-80
2023/09/22 14:57:13;;;;;;;2.72;2.53;;;18.50;99.90;;;19.03;70.42;96899.59;10424176;28;20241;-81
2023/09/22 15:02:17;;;;;;;1.50;1.40;;;18.40;99.90;;;19.01;70.04;96901.31;10428482;28;20225;-80
2023/09/22 15:07:22;;;;;;;1.80;1.70;;;18.50;99.90;;;19.15;69.21;96899.72;10423837;28;20229;-80
2023/09/22 15:12:26;;;;;;;2.20;2.10;;;18.50;99.90;;;19.03;70.01;96899.59;10434033;28;20228;-77
2023/09/22 15:17:30;;;;;;;2.03;1.92;;;18.40;99.90;;;18.99;68.61;96908.19;10435222;28;20236;-77
2023/09/22 15:22:34;;;;;;;1.80;1.70;;;18.60;99.90;;;18.90;69.53;96904.69;10444180;28;20323;-78
2023/09/22 15:27:38;;;;;;;2.28;1.75;;;18.30;99.90;;;19.02;68.17;96905.63;10456281;28;20225;-78
2023/09/22 15:32:41;;;;;;;2.00;1.90;;;18.50;99.90;;;18.77;70.37;96907.13;10436617;28;20332;-79
2023/09/22 15:37:45;;;;;;;1.85;1.75;;;18.30;99.90;;;18.48;72.08;96909.41;10420046;28;20233;-79
2023/09/22 15:42:50;;;;;;;2.15;2.03;;;17.90;99.90;;;18.52;71.08;96913.78;10429591;28;20292;-79
2023/09/22 15:47:54;;;;;;;2.22;1.70;;;18.00;99.90;;;18.26;73.01;96919.53;10441846;28;20294;-78
2023/09/22 15:52:58;;;;;;;1.40;1.30;;;17.70;99.90;;;18.29;73.42;96923.88;10435310;28;20368;-78
2023/09/22 15:58:02;;;;;;;2.03;1.55;;;17.50;99.90;;;18.17;74.10;96924.56;10438641;28;20706;-78
2023/09/22 16:03:05;;;;;;;1.75;1.50;;;17.40;99.90;;;18.24;72.16;96926.41;10442173;28;20278;-77
2023/09/22 16:08:10;;;;;;;1.45;1.35;;;17.40;99.90;;;18.20;72.50;96927.22;10443413;28;20264;-78
2023/09/22 16:13:13;;;;;;;1.58;1.48;;;17.30;99.90;;;18.19;71.14;96938.41;10460177;28;20294;-79
2023/09/22 16:18:20;;;;;;;1.35;1.08;;;17.30;99.90;;;17.94;72.81;96957.91;10447127;28;20244;-79
2023/09/22 16:23:25;;;;;;;1.10;1.10;;;17.10;99.90;;;17.79;73.56;96963.72;10450113;28;20669;-79
2023/09/22 16:28:28;;;;;;;1.67;1.15;;;16.90;99.90;;;17.82;71.72;96937.91;10444424;28;20649;-79
2023/09/22 16:33:32;;;;;;;1.65;1.30;;;17.00;99.90;;;17.93;70.68;96941.53;10441625;28;20217;-78
2023/09/22 16:38:37;;;;;;;1.60;1.50;;;17.20;99.90;;;17.46;74.97;96927.91;10439671;28;20292;-79
2023/09/22 16:43:41;;;;;;;1.40;1.30;;;16.80;99.90;;;17.43;75.73;96923.56;10437222;28;20287;-77
2023/09/22 16:48:46;;;;;;;1.92;1.63;;;16.70;99.90;;;17.11;77.11;96921.34;10426262;28;20233;-79
2023/09/22 16:53:51;;;;;;;3.00;2.80;;;16.50;99.90;;;16.93;79.03;96945.97;10450809;28;20228;-78
2023/09/22 16:58:55;;;;;;;2.55;2.35;;;16.20;99.90;;;16.56;81.67;96946.16;10446312;28;20601;-78
2023/09/22 17:03:58;;;;;;;3.00;2.80;;;15.90;99.90;;;16.59;82.09;96946.19;10449934;28;20229;-78
2023/09/22 17:09:04;;;;;;;3.20;3.00;;;15.80;99.90;;;16.37;82.94;96928.59;10447025;28;20217;-78
2023/09/22 17:14:08;;;;;;;2.75;2.55;;;15.70;99.90;;;16.20;82.60;96936.00;10442437;28;20602;-80
2023/09/22 17:19:11;;;;;;;2.78;2.58;;;15.50;99.90;;;16.04;83.71;96947.69;10448034;28;20260;-80
2023/09/22 17:24:19;;;;;;;2.83;2.63;;;15.40;99.90;;;15.87;83.47;96952.50;10445914;28;20224;-78
2023/09/22 17:29:23;;;;;;;2.90;1.70;;;15.20;99.90;;;15.84;81.99;96955.00;10443435;28;21166;-79
2023/09/22 17:34:26;;;;;;;1.75;1.65;;;15.10;99.90;;;15.99;80.23;96963.09;10461238;28;20228;-80
2023/09/22 17:39:31;;;;;;;1.80;1.70;;;15.30;99.90;;;15.87;82.18;96978.25;10450068;28;20225;-81
2023/09/22 17:44:35;;;;;;;2.40;2.20;;;15.10;99.90;;;15.75;84.14;96973.72;10439975;28;20222;-81
2023/09/22 17:49:39;;;;;;;3.45;3.15;;;15.00;99.90;;;15.55;85.46;96970.66;10473540;28;20437;-82
2023/09/22 17:54:45;;;;;;;2.15;2.05;;;14.80;99.90;;;15.32;85.59;96966.66;10464155;28;20676;-81
2023/09/22 17:59:48;;;;;;;2.10;2.00;;;14.60;99.90;;;15.28;86.99;96970.88;10469670;28;20236;-81
2023/09/22 18:04:51;;;;;;;2.15;2.05;;;14.60;99.90;;;15.17;87.42;96969.75;10467348;28;20236;-80
2023/09/22 18:09:56;;;;;;;1.65;1.63;;;14.40;99.90;;;15.12;87.79;96994.50;10472143;28;20253;-80
2023/09/22 18:14:59;;;;;;;1.70;1.60;;;14.30;99.90;;;14.96;88.67;97005.22;10468866;28;20221;-80
2023/09/22 18:20:05;;;;;;;1.65;1.55;;;14.20;99.90;;;14.94;88.50;97027.50;10456508;28;20226;-79
2023/09/22 18:25:10;;;;;;;1.63;1.52;;;14.10;99.90;;;14.96;90.03;97049.84;10443474;28;20260;-79
2023/09/22 18:30:13;;;;;;;1.60;1.52;;;14.20;99.90;;;14.90;91.70;97062.53;10460021;28;20221;-80
2023/09/22 18:35:17;;;;;;;1.80;1.70;;;14.20;99.90;;;14.90;92.40;97110.56;10446215;28;20286;-79
2023/09/22 18:40:21;;;;;;;4.40;2.40;;;14.10;99.90;;;15.14;95.59;97126.69;10444969;28;20703;-80
2023/09/22 18:45:25;;;;;;;2.08;1.92;;;14.30;99.90;;;14.87;99.24;97127.66;10450536;28;20598;-80
2023/09/22 18:50:29;;;;;;;2.20;2.10;;;14.10;99.90;;;14.57;100.00;97137.09;10442718;28;20671;-81
2023/09/22 18:55:33;;;;;;;2.33;2.22;;;14.00;99.90;;;14.39;100.00;97138.25;10448047;28;20278;-81
2023/09/22 19:00:39;;;;;;;2.28;2.17;;;13.80;99.90;;;14.37;100.00;97144.16;10454625;28;20726;-80
2023/09/22 19:05:44;;;;;;;2.95;2.72;;;13.80;99.90;;;14.30;100.00;97153.34;10450465;28;20229;-82
2023/09/22 19:10:48;;;;;;;3.05;2.80;;;13.70;99.90;;;14.35;100.00;97167.25;10452023;28;20719;-82
2023/09/22 19:16:00;;;;;;;2.85;2.50;;;13.80;99.90;;;14.19;100.00;97162.44;10448506;28;20225;-82
2023/09/22 19:21:04;;;;;;;2.47;2.30;;;13.70;99.90;;;14.16;100.00;97160.66;10439751;28;20229;-80
2023/09/22 19:26:10;;;;;;;2.80;2.60;;;13.60;99.90;;;14.02;100.00;97169.63;10447279;28;20647;-83
2023/09/22 19:31:13;;;;;;;3.47;3.17;;;13.50;99.90;;;14.05;100.00;97172.31;10441180;28;20267;-83
2023/09/22 19:36:17;;;;;;;4.78;4.32;;;13.50;99.90;;;13.95;100.00;97185.66;10438402;28;20313;-80
2023/09/22 19:41:23;;;;;;;3.63;3.33;;;13.50;99.90;;;13.90;100.00;97198.34;10457729;28;20225;-82
2023/09/22 19:46:27;;;;;;;3.58;3.28;;;13.40;99.90;;;13.97;100.00;97190.03;10444066;28;20283;-82
2023/09/22 19:51:31;;;;;;;3.83;3.00;;;13.50;99.90;;;14.04;100.00;97203.06;10460078;28;20311;-82
2023/09/22 19:56:36;;;;;;;3.00;2.80;;;13.50;99.90;;;14.00;100.00;97196.09;10458156;28;20233;-82
2023/09/22 20:01:39;;;;;;;3.25;2.85;;;13.40;99.90;;;13.94;100.00;97196.78;10455186;28;20732;-82
2023/09/22 20:06:43;;;;;;;2.47;2.28;;;13.40;99.90;;;13.71;100.00;97201.13;10447869;28;20229;-81
2023/09/22 20:11:47;;;;;;;2.30;2.10;;;13.20;99.90;;;13.66;100.00;97202.66;10454506;28;20225;-82
2023/09/22 20:16:51;;;;;;;2.25;2.03;;;13.20;99.90;;;13.77;100.00;97208.19;10445607;28;20228;-81
2023/09/22 20:21:54;;;;;;;2.65;1.88;;;13.30;99.90;;;13.83;100.00;97196.41;10447300;28;20779;-83
2023/09/22 20:26:59;;;;;;;2.17;1.98;;;13.30;99.90;;;13.68;100.00;97201.03;10462176;28;20228;-81
2023/09/22 20:32:02;;;;;;;2.00;1.90;;;13.10;99.90;;;13.67;100.00;97205.28;10465675;28;20255;-81
2023/09/22 20:37:05;;;;;;;2.53;2.13;;;13.10;99.90;;;13.71;100.00;97206.28;10472720;28;20255;-82
2023/09/22 20:42:10;;;;;;;2.25;2.05;;;13.20;99.90;;;13.71;100.00;97199.44;10460857;28;20216;-82
2023/09/22 20:47:14;;;;;;;2.10;2.00;;;13.10;99.90;;;13.70;100.00;97191.66;10464975;28;20275;-80
2023/09/22 20:52:20;;;;;;;2.88;2.10;;;13.10;99.90;;;13.70;100.00;97209.63;10462859;28;20315;-81
2023/09/22 20:57:24;;;;;;;3.63;2.63;;;13.00;99.90;;;13.57;100.00;97208.34;10479118;28;20221;-81